Terminal Aerodrome Forecast
Issued by NWS

Current Version | Previous Version | Text Only | Print | Product List | Glossary Off
Versions: 1 2 3 4 5 6 7 8 9 10 11 12 13 14 15 16 17 18 19 20 21 22 23 24 25 26 27 28 29

000
FTUS44 KHGX 162320
TAFIAH
TAF
KIAH 162320Z 1700/1806 13011KT P6SM SCT030
     FM170700 11006KT P6SM SCT015 BKN025 BKN250
     FM171300 09009KT P6SM SCT015 BKN035 BKN250
     FM171800 11011KT P6SM BKN035 BKN250
     FM180200 07008KT P6SM BKN045=

USA.gov is the U.S. government's official web portal to all federal, state and local government web resources and services.